createdAt,value
2018-02-06T00:00:03.787Z,17.40
2018-02-06T00:01:03.716Z,18.20
2018-02-06T00:02:03.648Z,18.00
2018-02-06T00:03:03.588Z,17.10
2018-02-06T00:04:03.471Z,18.10
2018-02-06T00:05:03.498Z,17.90
2018-02-06T00:06:03.336Z,20.30
2018-02-06T00:07:03.335Z,18.10
2018-02-06T00:08:03.127Z,18.50
2018-02-06T00:09:03.115Z,17.50
2018-02-06T00:10:03.019Z,18.10
2018-02-06T00:11:02.931Z,16.90
2018-02-06T00:12:02.811Z,16.80
2018-02-06T00:13:02.760Z,17.20
2018-02-06T00:14:02.610Z,16.20
2018-02-06T00:15:02.551Z,17.80
2018-02-06T00:16:02.449Z,18.70
2018-02-06T00:17:02.460Z,20.00
2018-02-06T00:18:02.300Z,18.00
2018-02-06T00:19:02.269Z,16.50
2018-02-06T00:20:02.152Z,16.20
2018-02-06T00:21:02.033Z,17.90
2018-02-06T00:22:01.955Z,17.90
2018-02-06T00:23:01.902Z,16.70
2018-02-06T00:24:01.801Z,17.50
2018-02-06T00:25:01.791Z,15.90
2018-02-06T00:26:01.625Z,16.00
2018-02-06T00:27:01.589Z,17.50
2018-02-06T00:28:01.439Z,16.50
2018-02-06T00:29:01.436Z,16.60
2018-02-06T00:30:01.268Z,18.10
2018-02-06T00:31:01.189Z,16.10
2018-02-06T00:32:01.095Z,16.20
2018-02-06T00:33:01.162Z,17.10
2018-02-06T00:34:00.943Z,17.60
2018-02-06T00:35:00.941Z,16.80
2018-02-06T00:36:00.752Z,16.90
2018-02-06T00:37:00.745Z,15.90
2018-02-06T00:38:00.588Z,16.40
2018-02-06T00:39:00.585Z,16.50
2018-02-06T00:40:00.417Z,16.80
2018-02-06T00:41:00.452Z,16.90
2018-02-06T00:42:00.249Z,17.90
2018-02-06T00:43:00.275Z,17.60
2018-02-06T00:44:00.090Z,17.00
2018-02-06T00:45:00.121Z,17.50
2018-02-06T00:45:59.904Z,17.70
2018-02-06T00:46:59.882Z,15.80
2018-02-06T00:47:59.762Z,16.00
2018-02-06T00:48:59.797Z,17.50
2018-02-06T00:49:59.665Z,18.30
2018-02-06T00:50:59.598Z,17.30
2018-02-06T00:51:59.404Z,18.10
2018-02-06T00:52:59.357Z,18.60
2018-02-06T00:53:59.259Z,15.80
2018-02-06T00:54:59.242Z,16.00
2018-02-06T00:55:59.066Z,17.60
2018-02-06T00:56:59.037Z,17.20
2018-02-06T00:57:58.891Z,17.10
2018-02-06T00:58:59.920Z,18.70
2018-02-06T00:59:58.762Z,17.40
2018-02-06T01:00:58.738Z,16.20
2018-02-06T01:01:58.572Z,17.30
2018-02-06T01:02:58.556Z,20.30
2018-02-06T01:03:58.508Z,20.00
2018-02-06T01:04:58.368Z,18.90
2018-02-06T01:05:58.240Z,18.80
2018-02-06T01:06:58.269Z,18.90
2018-02-06T01:07:58.063Z,19.10
2018-02-06T01:08:58.145Z,18.40
2018-02-06T01:09:57.881Z,18.70
2018-02-06T01:10:57.932Z,18.40
2018-02-06T01:11:57.710Z,18.70
2018-02-06T01:12:57.707Z,19.50
2018-02-06T01:13:57.569Z,19.30
2018-02-06T01:14:57.515Z,19.00
2018-02-06T01:15:57.394Z,18.80
2018-02-06T01:16:57.421Z,18.00
2018-02-06T01:17:57.226Z,18.80
2018-02-06T01:18:57.228Z,17.90
2018-02-06T01:19:57.052Z,19.60
2018-02-06T01:20:57.074Z,21.30
2018-02-06T01:21:56.905Z,20.90
2018-02-06T01:22:56.847Z,18.80
2018-02-06T01:23:56.702Z,18.70
2018-02-06T01:24:56.648Z,19.10
2018-02-06T01:25:56.540Z,17.50
2018-02-06T01:26:56.572Z,19.50
2018-02-06T01:27:56.371Z,20.40
2018-02-06T01:28:56.397Z,19.40
2018-02-06T01:29:56.192Z,18.30
2018-02-06T01:30:56.224Z,18.30
2018-02-06T01:31:56.025Z,18.70
2018-02-06T01:32:55.978Z,18.90
2018-02-06T01:33:55.878Z,19.70
2018-02-06T01:34:55.911Z,19.00
2018-02-06T01:35:55.701Z,18.50
2018-02-06T01:36:55.740Z,19.50
2018-02-06T01:37:55.520Z,17.80
2018-02-06T01:38:55.524Z,18.30
2018-02-06T01:39:55.353Z,17.90
2018-02-06T01:40:55.284Z,18.60
2018-02-06T01:41:55.203Z,18.40
2018-02-06T01:42:55.136Z,21.40
2018-02-06T01:43:55.011Z,16.90
2018-02-06T01:44:55.047Z,17.90
2018-02-06T01:45:54.833Z,19.80
2018-02-06T01:46:55.909Z,18.50
2018-02-06T01:47:54.704Z,19.90
2018-02-06T01:48:54.655Z,17.80
2018-02-06T01:49:54.514Z,20.20
2018-02-06T01:50:54.467Z,17.70
2018-02-06T01:51:54.331Z,20.70
2018-02-06T01:52:54.309Z,19.10
2018-02-06T01:53:54.178Z,20.00
2018-02-06T01:54:54.183Z,18.30
2018-02-06T01:55:53.997Z,17.90
2018-02-06T01:56:53.999Z,19.70
2018-02-06T01:57:53.859Z,16.80
2018-02-06T01:58:53.798Z,19.10
2018-02-06T01:59:53.713Z,18.80
2018-02-06T02:00:53.610Z,18.70
2018-02-06T02:01:53.483Z,17.60
2018-02-06T02:02:53.533Z,17.20
2018-02-06T02:03:53.405Z,18.00
2018-02-06T02:04:53.330Z,19.40
2018-02-06T02:05:53.147Z,18.90
2018-02-06T02:08:35.354Z,19.00
2018-02-06T02:09:35.435Z,18.60
2018-02-06T02:10:35.213Z,18.50
2018-02-06T02:11:35.659Z,19.60
2018-02-06T02:12:35.022Z,17.50
2018-02-06T02:13:35.008Z,18.10
2018-02-06T02:14:34.837Z,19.30
2018-02-06T02:15:34.867Z,20.60
2018-02-06T02:16:34.673Z,18.00
2018-02-06T02:17:34.679Z,20.80
2018-02-06T02:18:34.525Z,19.50
2018-02-06T02:19:34.497Z,19.50
2018-02-06T02:20:34.327Z,20.20
2018-02-06T02:21:34.289Z,20.90
2018-02-06T02:22:34.166Z,19.60
2018-02-06T02:23:34.239Z,19.40
2018-02-06T02:24:33.997Z,19.40
2018-02-06T02:25:34.004Z,20.10
2018-02-06T02:26:33.835Z,20.40
2018-02-06T02:27:33.815Z,20.60
2018-02-06T02:28:33.659Z,18.40
2018-02-06T02:29:33.671Z,20.00
2018-02-06T02:30:33.487Z,19.10
2018-02-06T02:31:33.536Z,19.70
2018-02-06T02:32:33.319Z,20.50
2018-02-06T02:33:33.349Z,20.40
2018-02-06T02:34:33.170Z,20.70
2018-02-06T02:35:33.155Z,19.20
2018-02-06T02:36:32.978Z,20.70
2018-02-06T02:37:32.960Z,19.90
2018-02-06T02:38:32.806Z,18.90
2018-02-06T02:39:32.799Z,20.80
2018-02-06T02:40:32.702Z,20.00
2018-02-06T02:41:32.686Z,19.00
2018-02-06T04:39:22.706Z,21.80
2018-02-06T04:40:22.493Z,22.30
2018-02-06T04:41:22.445Z,21.90
2018-02-06T04:42:22.308Z,23.70
2018-02-06T04:43:22.321Z,21.90
2018-02-06T04:44:22.137Z,22.90
2018-02-06T04:45:22.130Z,24.00
2018-02-06T04:46:21.991Z,22.80
2018-02-06T04:47:21.940Z,21.90
2018-02-06T04:48:21.802Z,23.70
2018-02-06T04:49:21.846Z,21.90
2018-02-06T04:50:21.627Z,24.20
2018-02-06T04:51:21.689Z,22.60
2018-02-06T04:52:21.488Z,26.80
2018-02-06T04:53:21.468Z,22.30
2018-02-06T04:54:21.326Z,22.10
2018-02-06T04:55:21.271Z,23.30
2018-02-06T04:56:21.116Z,22.90
2018-02-06T04:57:21.108Z,21.70
2018-02-06T04:58:20.950Z,24.50
2018-02-06T04:59:21.000Z,22.40
2018-02-06T05:00:20.778Z,24.50
2018-02-06T05:01:20.810Z,24.40
2018-02-06T05:02:20.636Z,22.30
2018-02-06T05:03:20.608Z,24.60
2018-02-06T05:04:20.435Z,20.80
2018-02-06T05:05:20.419Z,24.20
2018-02-06T05:06:20.268Z,23.10
2018-02-06T05:07:20.268Z,23.70
2018-02-06T05:08:20.167Z,22.90
2018-02-06T05:09:20.152Z,23.60
2018-02-06T05:10:19.941Z,24.70
2018-02-06T05:11:19.943Z,24.90
2018-02-06T05:12:19.769Z,21.00
2018-02-06T05:13:19.782Z,24.70
2018-02-06T05:14:19.586Z,24.10
2018-02-06T05:15:19.672Z,23.80
2018-02-06T05:16:19.419Z,23.50
2018-02-06T05:17:19.474Z,21.70
2018-02-06T05:18:19.245Z,21.80
2018-02-06T05:19:19.333Z,22.60
2018-02-06T05:20:19.078Z,21.40
2018-02-06T05:21:19.087Z,21.10
2018-02-06T05:22:18.919Z,21.00
2018-02-06T05:23:18.931Z,21.50
2018-02-06T05:24:18.738Z,22.00
2018-02-06T05:25:18.762Z,21.10
2018-02-06T05:26:18.578Z,22.40
2018-02-06T05:27:18.616Z,20.60
2018-02-06T05:28:18.432Z,19.50
2018-02-06T05:29:18.422Z,19.70
2018-02-06T05:30:18.253Z,19.90
2018-02-06T05:31:18.238Z,75.10
2018-02-06T05:32:18.063Z,109.30
2018-02-06T05:33:18.051Z,39.60
2018-02-06T05:34:17.911Z,53.30
2018-02-06T05:35:17.889Z,44.20
2018-02-06T05:36:17.748Z,23.90
2018-02-06T05:37:17.635Z,20.40
2018-02-06T05:38:17.556Z,21.40
2018-02-06T05:39:18.151Z,20.40
2018-02-06T05:40:17.382Z,20.20
2018-02-06T05:41:17.313Z,22.30
2018-02-06T05:42:17.239Z,20.40
2018-02-06T05:43:17.139Z,21.20
2018-02-06T05:44:17.042Z,22.10
2018-02-06T05:45:17.057Z,19.40
2018-02-06T05:46:16.887Z,20.80
2018-02-06T05:47:16.798Z,20.20
2018-02-06T05:48:16.707Z,22.50
2018-02-06T05:49:16.620Z,19.10
2018-02-06T05:50:16.545Z,20.50
2018-02-06T05:51:16.463Z,20.20
2018-02-06T05:52:16.367Z,18.70
2018-02-06T05:53:16.294Z,21.30
2018-02-06T05:54:16.227Z,21.40
2018-02-06T05:55:16.141Z,22.70
2018-02-06T05:56:16.054Z,19.80
2018-02-06T05:57:15.941Z,23.30
2018-02-06T05:58:15.860Z,19.10
2018-02-06T05:59:15.779Z,19.70
2018-02-06T06:00:15.680Z,21.10
2018-02-06T06:01:15.620Z,19.70
2018-02-06T06:02:15.550Z,19.50
2018-02-06T06:03:15.465Z,19.60
2018-02-06T06:04:15.346Z,20.40
2018-02-06T06:06:57.357Z,18.90
2018-02-06T06:07:57.309Z,20.40
2018-02-06T06:08:57.192Z,19.00
2018-02-06T06:09:57.113Z,19.80
2018-02-06T06:10:57.033Z,20.20
2018-02-06T06:11:56.946Z,19.00
2018-02-06T06:12:56.865Z,20.00
2018-02-06T06:13:56.787Z,20.40
2018-02-06T06:14:56.671Z,19.70
2018-02-06T06:15:56.612Z,20.20
2018-02-06T06:16:56.511Z,20.30
2018-02-06T06:17:56.488Z,21.00
2018-02-06T06:18:56.340Z,21.00
2018-02-06T06:19:56.926Z,19.80
2018-02-06T06:20:56.194Z,19.30
2018-02-06T06:21:56.091Z,18.80
2018-02-06T06:22:56.018Z,20.70
2018-02-06T06:23:55.928Z,20.60
2018-02-06T06:24:55.849Z,19.00
2018-02-06T06:25:55.756Z,19.90
2018-02-06T06:26:55.669Z,19.40
2018-02-06T06:27:55.609Z,21.20
2018-02-06T06:28:55.485Z,19.20
2018-02-06T06:29:55.412Z,20.50
2018-02-06T06:30:55.319Z,17.60
2018-02-06T06:33:37.379Z,19.80
2018-02-06T06:34:37.289Z,19.50
2018-02-06T06:35:37.186Z,19.50
2018-02-06T06:36:37.116Z,22.40
2018-02-06T06:37:37.027Z,23.20
2018-02-06T06:38:37.045Z,21.60
2018-02-06T06:39:36.848Z,20.90
2018-02-06T06:40:36.782Z,20.80
2018-02-06T06:41:36.695Z,23.30
2018-02-06T06:42:36.605Z,22.30
2018-02-06T06:43:36.549Z,19.50
2018-02-06T06:44:36.434Z,21.60
2018-02-06T06:45:36.375Z,20.50
2018-02-06T06:46:36.262Z,21.00
2018-02-06T06:47:36.164Z,19.40
2018-02-06T06:48:36.109Z,20.00
2018-02-06T06:49:36.025Z,22.30
2018-02-06T06:50:35.958Z,21.70
2018-02-06T06:51:35.826Z,20.00
2018-02-06T06:52:35.803Z,22.00
2018-02-06T06:53:35.659Z,21.10
2018-02-06T06:54:35.586Z,21.80
2018-02-06T06:55:35.488Z,21.50
2018-02-06T06:56:35.433Z,23.00
2018-02-06T06:57:35.324Z,23.50
2018-02-06T06:58:35.246Z,21.20
2018-02-06T06:59:35.185Z,20.50
2018-02-06T07:00:35.071Z,22.70
2018-02-06T07:01:35.012Z,20.90
2018-02-06T07:02:34.905Z,21.00
2018-02-06T07:03:34.823Z,21.70
2018-02-06T07:04:34.736Z,21.60
2018-02-06T07:05:34.642Z,24.70
2018-02-06T07:06:34.602Z,21.50
2018-02-06T07:07:34.498Z,20.20
2018-02-06T07:08:34.406Z,20.60
2018-02-06T07:09:34.309Z,21.30
2018-02-06T07:10:34.252Z,21.80
2018-02-06T07:11:34.135Z,22.70
2018-02-06T07:12:34.062Z,23.10
2018-02-06T07:13:33.965Z,21.90
2018-02-06T07:14:33.882Z,25.00
2018-02-06T07:15:33.850Z,22.20
2018-02-06T07:16:33.719Z,21.20
2018-02-06T07:17:33.644Z,22.10
2018-02-06T07:18:33.602Z,19.90
2018-02-06T07:19:33.450Z,18.70
2018-02-06T07:20:33.485Z,20.10
2018-02-06T07:21:33.278Z,20.30
2018-02-06T07:22:33.303Z,21.70
2018-02-06T07:23:33.136Z,22.60
2018-02-06T07:24:33.167Z,21.40
2018-02-06T07:25:32.951Z,24.20
2018-02-06T07:26:32.955Z,20.90
2018-02-06T07:27:32.778Z,22.40
2018-02-06T07:28:32.735Z,21.10
2018-02-06T07:29:32.710Z,20.20
2018-02-06T07:30:32.636Z,21.10
2018-02-06T07:31:32.445Z,21.70
2018-02-06T07:32:32.483Z,22.30
2018-02-06T07:33:32.267Z,23.10
2018-02-06T07:34:32.302Z,22.20
2018-02-06T07:35:32.091Z,20.50
2018-02-06T07:36:32.052Z,22.40
2018-02-06T07:37:31.941Z,21.90
2018-02-06T07:38:31.886Z,25.50
2018-02-06T07:39:31.789Z,20.30
2018-02-06T07:40:31.777Z,22.60
2018-02-06T07:41:31.618Z,21.70
2018-02-06T07:42:31.512Z,22.10
2018-02-06T07:43:31.416Z,24.20
2018-02-06T07:44:31.356Z,22.20
2018-02-06T07:45:31.239Z,22.90
2018-02-06T07:46:31.232Z,23.30
2018-02-06T07:47:31.070Z,20.30
2018-02-06T07:48:30.993Z,22.90
2018-02-06T07:49:30.988Z,21.40
2018-02-06T07:50:30.860Z,23.70
2018-02-06T07:51:30.743Z,23.60
2018-02-06T07:52:30.670Z,25.90
2018-02-06T07:53:30.566Z,23.30
2018-02-06T07:54:30.490Z,20.20
2018-02-06T07:55:30.409Z,22.20
2018-02-06T07:56:30.339Z,21.00
2018-02-06T07:57:30.238Z,26.30
2018-02-06T07:58:30.251Z,20.70
2018-02-06T07:59:30.055Z,24.90
2018-02-06T08:00:30.007Z,24.10
2018-02-06T08:01:29.886Z,23.70
2018-02-06T08:02:29.807Z,21.50
2018-02-06T08:03:29.723Z,22.00
2018-02-06T08:04:29.642Z,25.20
2018-02-06T08:05:29.557Z,22.20
2018-02-06T08:06:29.524Z,26.80
2018-02-06T08:07:29.395Z,22.30
2018-02-06T08:08:29.309Z,25.40
2018-02-06T08:09:29.211Z,24.00
2018-02-06T08:10:29.228Z,24.00
2018-02-06T08:11:29.035Z,21.90
2018-02-06T08:12:28.967Z,21.80
2018-02-06T08:13:28.872Z,19.80
2018-02-06T08:14:28.809Z,21.20
2018-02-06T08:15:28.707Z,22.30
2018-02-06T08:16:28.659Z,21.60
2018-02-06T08:17:28.555Z,25.60
2018-02-06T08:18:28.458Z,22.30
2018-02-06T08:19:28.373Z,21.40
2018-02-06T08:20:28.292Z,20.30
2018-02-06T08:21:28.196Z,21.10
2018-02-06T08:22:28.137Z,23.20
2018-02-06T08:23:28.031Z,20.60
2018-02-06T08:24:27.974Z,21.30
2018-02-06T08:25:27.864Z,22.80
2018-02-06T08:26:27.787Z,19.90
2018-02-06T08:27:27.786Z,22.00
2018-02-06T08:28:27.652Z,19.80
2018-02-06T08:29:27.526Z,29.50
2018-02-06T08:30:27.448Z,21.10
2018-02-06T08:31:27.354Z,22.00
2018-02-06T08:32:27.324Z,21.20
2018-02-06T08:33:27.182Z,21.20
2018-02-06T08:34:27.131Z,21.20
2018-02-06T08:35:27.032Z,25.10
2018-02-06T08:36:26.959Z,22.00
2018-02-06T08:37:26.868Z,24.50
2018-02-06T08:38:26.797Z,21.30
2018-02-06T08:39:26.714Z,23.20
2018-02-06T08:40:26.629Z,20.50
2018-02-06T08:41:26.519Z,22.30
2018-02-06T08:42:26.495Z,21.20
2018-02-06T08:43:26.377Z,20.40
2018-02-06T08:44:26.270Z,22.40
2018-02-06T08:45:26.175Z,25.40
2018-02-06T08:46:26.108Z,19.60
2018-02-06T08:47:26.021Z,21.10
2018-02-06T08:48:25.966Z,22.40
2018-02-06T08:49:25.853Z,25.50
2018-02-06T08:50:25.766Z,21.30
2018-02-06T08:51:25.695Z,22.00
2018-02-06T08:52:25.614Z,22.80
2018-02-06T08:53:25.521Z,22.20
2018-02-06T08:54:25.447Z,23.40
2018-02-06T08:55:25.357Z,21.90
2018-02-06T08:56:25.278Z,21.90
2018-02-06T08:57:25.184Z,22.30
2018-02-06T08:58:25.095Z,24.90
2018-02-06T08:59:25.023Z,21.10
2018-02-06T09:00:24.941Z,19.70
2018-02-06T09:01:24.936Z,20.80
2018-02-06T09:02:24.766Z,19.60
2018-02-06T09:03:24.663Z,22.30
2018-02-06T09:04:24.621Z,21.50
2018-02-06T09:05:24.499Z,20.70
2018-02-06T09:06:24.445Z,19.50
2018-02-06T09:07:24.347Z,20.40
2018-02-06T09:08:24.271Z,20.50
2018-02-06T09:09:24.199Z,22.70
2018-02-06T09:10:24.117Z,18.90
2018-02-06T09:11:24.020Z,20.40
2018-02-06T09:12:23.926Z,24.30
2018-02-06T09:13:23.869Z,20.70
2018-02-06T09:14:23.773Z,20.70
2018-02-06T09:15:23.715Z,22.40
2018-02-06T09:16:23.606Z,22.00
2018-02-06T09:17:23.509Z,19.10
2018-02-06T09:18:23.456Z,21.00
2018-02-06T09:19:23.352Z,21.70
2018-02-06T09:20:23.298Z,18.70
2018-02-06T09:21:23.187Z,23.20
2018-02-06T09:22:23.141Z,19.80
2018-02-06T09:23:23.038Z,20.10
2018-02-06T09:24:22.949Z,21.50
2018-02-06T09:25:22.880Z,17.90
2018-02-06T09:26:22.812Z,20.50
2018-02-06T09:27:22.807Z,17.90
2018-02-06T09:28:22.632Z,18.00
2018-02-06T09:29:22.539Z,19.10
2018-02-06T09:30:22.467Z,19.30
2018-02-06T09:31:22.372Z,17.70
2018-02-06T09:32:22.323Z,20.90
2018-02-06T09:33:22.208Z,17.60
2018-02-06T09:34:22.166Z,19.80
2018-02-06T09:35:22.059Z,20.00
2018-02-06T09:36:22.087Z,17.70
2018-02-06T09:37:21.887Z,18.20
2018-02-06T09:38:21.824Z,17.90
2018-02-06T09:39:21.724Z,18.20
2018-02-06T09:40:21.658Z,18.40
2018-02-06T09:41:21.618Z,19.90
2018-02-06T09:42:21.569Z,19.00
2018-02-06T09:43:21.423Z,18.40
2018-02-06T09:44:21.334Z,18.20
2018-02-06T09:45:21.284Z,18.70
2018-02-06T09:46:21.213Z,21.00
2018-02-06T09:47:21.084Z,19.30
2018-02-06T09:48:21.023Z,18.90
2018-02-06T09:49:20.939Z,18.70
2018-02-06T09:50:20.906Z,18.80
2018-02-06T09:51:20.771Z,19.60
2018-02-06T09:52:20.721Z,20.10
2018-02-06T09:53:20.622Z,20.60
2018-02-06T09:54:20.538Z,19.90
2018-02-06T09:55:20.448Z,20.50
2018-02-06T09:56:20.376Z,20.70
2018-02-06T09:57:20.312Z,18.90
2018-02-06T09:58:20.221Z,22.40
2018-02-06T09:59:20.238Z,19.80
2018-02-06T10:00:20.084Z,21.00
2018-02-06T10:01:19.970Z,19.60
2018-02-06T10:02:19.912Z,20.60
2018-02-06T10:03:19.795Z,20.90
2018-02-06T10:04:19.740Z,20.80
2018-02-06T10:05:19.638Z,19.80
2018-02-06T10:06:19.567Z,21.70
2018-02-06T10:07:19.503Z,20.50
2018-02-06T10:08:19.406Z,21.00
2018-02-06T10:09:19.314Z,22.40
2018-02-06T10:10:19.260Z,20.40
2018-02-06T10:11:19.160Z,22.80
2018-02-06T10:12:19.122Z,20.70
2018-02-06T10:13:19.001Z,23.40
2018-02-06T10:14:18.936Z,21.30
2018-02-06T10:15:18.851Z,23.00
2018-02-06T10:16:18.754Z,23.70
2018-02-06T10:17:18.705Z,21.00
2018-02-06T10:18:18.625Z,21.80
2018-02-06T10:19:18.506Z,21.90
2018-02-06T10:20:18.423Z,22.40
2018-02-06T10:21:18.329Z,25.10
2018-02-06T10:22:18.327Z,21.20
2018-02-06T10:23:18.201Z,22.60
2018-02-06T10:24:18.109Z,25.40
2018-02-06T10:25:18.002Z,23.60
2018-02-06T10:26:17.930Z,24.90
2018-02-06T10:27:17.855Z,20.90
2018-02-06T10:28:17.790Z,24.40
2018-02-06T10:29:17.675Z,23.50
2018-02-06T10:30:17.631Z,23.50
2018-02-06T10:31:17.564Z,23.00
2018-02-06T10:32:17.471Z,21.70
2018-02-06T10:33:17.348Z,22.10
2018-02-06T10:34:17.290Z,22.70
2018-02-06T10:35:17.205Z,22.30
2018-02-06T10:36:17.114Z,21.20
2018-02-06T10:37:17.030Z,21.50
2018-02-06T10:38:16.960Z,22.00
2018-02-06T10:39:16.877Z,20.60
2018-02-06T10:40:16.789Z,23.30
2018-02-06T10:41:16.701Z,22.10
2018-02-06T10:42:16.617Z,22.50
2018-02-06T10:43:16.524Z,21.60
2018-02-06T10:44:16.472Z,23.00
2018-02-06T10:45:16.410Z,28.50
2018-02-06T10:46:16.281Z,25.90
2018-02-06T10:47:16.203Z,20.60
2018-02-06T10:48:16.127Z,23.70
2018-02-06T10:49:16.042Z,22.30
2018-02-06T10:50:15.974Z,22.80
2018-02-06T10:51:15.901Z,24.50
2018-02-06T10:52:15.795Z,23.70
2018-02-06T10:53:15.699Z,22.70
2018-02-06T10:54:16.454Z,21.90
2018-02-06T10:55:15.543Z,22.40
2018-02-06T10:56:15.479Z,23.20
2018-02-06T10:57:15.394Z,23.60
2018-02-06T10:58:15.302Z,19.70
2018-02-06T10:59:15.207Z,23.70
2018-02-06T11:01:57.401Z,22.90
2018-02-06T11:02:57.310Z,24.60
2018-02-06T11:03:57.218Z,22.70
2018-02-06T11:04:57.150Z,22.00
2018-02-06T11:05:57.070Z,20.80
2018-02-06T11:06:56.979Z,22.80
2018-02-06T11:07:56.962Z,23.10
2018-02-06T11:08:56.811Z,24.30
2018-02-06T11:09:56.721Z,23.50
2018-02-06T11:10:56.672Z,24.10
2018-02-06T11:11:56.554Z,24.00
2018-02-06T11:12:56.503Z,25.30
2018-02-06T11:13:56.395Z,21.50
2018-02-06T11:14:56.350Z,22.30
2018-02-06T11:15:56.268Z,23.40
2018-02-06T11:16:56.202Z,20.80
2018-02-06T11:17:56.080Z,22.70
2018-02-06T11:18:55.989Z,23.00
2018-02-06T11:19:55.912Z,26.20
2018-02-06T11:20:55.827Z,23.10
2018-02-06T11:21:55.762Z,23.30
2018-02-06T11:22:55.692Z,24.00
2018-02-06T11:23:55.619Z,22.10
2018-02-06T11:24:55.492Z,23.20
2018-02-06T11:25:55.406Z,24.90
2018-02-06T11:26:55.343Z,25.00
2018-02-06T11:27:55.256Z,23.00
2018-02-06T11:28:55.181Z,24.70
2018-02-06T11:29:55.080Z,24.70
2018-02-06T11:30:55.070Z,22.90
2018-02-06T11:31:54.910Z,21.40
2018-02-06T11:32:54.847Z,24.20
2018-02-06T11:33:54.764Z,23.80
2018-02-06T11:34:54.663Z,23.40
2018-02-06T11:35:54.575Z,25.00
2018-02-06T11:36:54.513Z,24.70
2018-02-06T11:37:54.427Z,23.20
2018-02-06T11:38:54.362Z,25.20
2018-02-06T11:39:54.259Z,24.90
2018-02-06T11:40:54.185Z,26.50
2018-02-06T11:41:54.100Z,24.10
2018-02-06T11:42:54.035Z,24.10
2018-02-06T11:43:54.013Z,24.40
2018-02-06T11:44:53.876Z,25.00
2018-02-06T11:45:54.156Z,24.70
2018-02-06T11:46:53.703Z,24.80
2018-02-06T11:47:53.588Z,22.20
2018-02-06T11:48:53.560Z,25.80
2018-02-06T11:49:53.433Z,23.30
2018-02-06T11:50:53.484Z,23.90
2018-02-06T11:51:53.268Z,23.00
2018-02-06T11:52:53.220Z,23.70
2018-02-06T11:53:53.092Z,22.40
2018-02-06T11:54:53.054Z,23.40
2018-02-06T11:55:52.952Z,25.80
2018-02-06T11:58:34.915Z,26.90
2018-02-06T11:59:34.844Z,24.90
2018-02-06T12:00:34.737Z,23.20
2018-02-06T12:01:34.663Z,22.60
2018-02-06T12:02:34.635Z,22.80
2018-02-06T12:03:34.500Z,24.00
2018-02-06T12:04:34.432Z,23.60
2018-02-06T12:05:34.340Z,25.70
2018-02-06T12:06:34.247Z,23.20
2018-02-06T12:07:34.185Z,24.00
2018-02-06T12:08:34.090Z,22.80
2018-02-06T12:09:35.035Z,25.00
2018-02-06T12:10:33.909Z,23.10
2018-02-06T12:11:33.845Z,22.60
2018-02-06T12:12:33.750Z,26.20
2018-02-06T12:13:34.714Z,24.10
2018-02-06T12:14:33.576Z,22.80
2018-02-06T12:17:15.423Z,26.80
2018-02-06T12:18:15.330Z,20.30
2018-02-06T12:19:15.246Z,24.50
2018-02-06T12:20:15.149Z,24.40
2018-02-06T12:21:15.069Z,24.90
2018-02-06T12:22:15.020Z,22.80
2018-02-06T12:24:57.019Z,23.10
2018-02-06T12:25:56.810Z,24.90
2018-02-06T12:26:56.753Z,22.50
2018-02-06T12:27:56.642Z,22.80
2018-02-06T12:28:56.617Z,22.80
2018-02-06T12:29:56.528Z,21.90
2018-02-06T12:30:56.410Z,26.40
2018-02-06T12:31:56.334Z,30.90
2018-02-06T12:32:56.251Z,36.20
2018-02-06T12:33:56.196Z,27.30
2018-02-06T12:34:56.093Z,23.80
2018-02-06T12:35:56.011Z,23.10
2018-02-06T12:36:55.921Z,25.70
2018-02-06T12:37:56.158Z,24.80
2018-02-06T12:38:55.817Z,26.40
2018-02-06T12:39:55.662Z,26.00
2018-02-06T12:40:55.612Z,23.60
2018-02-06T12:41:55.497Z,25.50
2018-02-06T12:42:55.437Z,25.70
2018-02-06T12:43:55.376Z,26.40
2018-02-06T12:44:55.274Z,28.30
2018-02-06T12:45:55.175Z,25.60
2018-02-06T12:46:55.090Z,24.80
2018-02-06T12:47:55.055Z,24.70
2018-02-06T12:48:54.930Z,24.20
2018-02-06T12:49:54.866Z,24.90
2018-02-06T12:50:54.758Z,24.40
2018-02-06T12:51:54.665Z,22.70
2018-02-06T12:52:54.600Z,24.80
2018-02-06T12:53:54.504Z,28.10
2018-02-06T12:54:54.466Z,23.50
2018-02-06T12:55:54.359Z,23.80
2018-02-06T12:56:54.264Z,27.90
2018-02-06T12:57:54.177Z,25.70
2018-02-06T13:00:36.432Z,24.40
2018-02-06T13:01:36.354Z,24.90
2018-02-06T13:02:36.268Z,23.40
2018-02-06T13:03:36.158Z,23.70
2018-02-06T13:04:36.073Z,22.40
2018-02-06T13:05:36.033Z,23.90
2018-02-06T13:06:35.905Z,23.80
2018-02-06T13:07:35.837Z,26.50
2018-02-06T13:08:35.744Z,23.50
2018-02-06T13:09:35.662Z,23.30
2018-02-06T13:10:35.603Z,24.20
2018-02-06T13:11:35.528Z,25.70
2018-02-06T13:12:35.408Z,27.40
2018-02-06T13:13:35.340Z,26.10
2018-02-06T13:14:35.238Z,27.60
2018-02-06T13:15:35.215Z,24.90
2018-02-06T13:16:35.078Z,25.00
2018-02-06T13:17:35.011Z,25.70
2018-02-06T13:18:34.916Z,24.40
2018-02-06T13:19:34.856Z,26.90
2018-02-06T13:20:34.756Z,24.50
2018-02-06T13:21:34.710Z,26.70
2018-02-06T13:22:34.598Z,26.20
2018-02-06T13:23:34.506Z,24.30
2018-02-06T13:24:34.433Z,25.00
2018-02-06T13:25:34.347Z,26.90
2018-02-06T13:26:34.269Z,26.00
2018-02-06T13:27:34.179Z,22.80
2018-02-06T13:28:34.088Z,27.20
2018-02-06T13:29:34.020Z,27.20
2018-02-06T13:30:33.923Z,23.70
2018-02-06T13:31:33.870Z,23.30
2018-02-06T13:32:33.750Z,27.20
2018-02-06T13:33:33.699Z,25.00
2018-02-06T13:34:33.581Z,27.70
2018-02-06T13:35:33.523Z,23.70
2018-02-06T13:36:33.422Z,22.30
2018-02-06T13:37:33.378Z,23.00
2018-02-06T13:38:33.276Z,25.10
2018-02-06T13:39:33.181Z,23.00
2018-02-06T13:40:33.167Z,25.80
2018-02-06T13:41:33.017Z,27.10
2018-02-06T13:42:32.955Z,24.90
2018-02-06T13:43:32.875Z,24.70
2018-02-06T13:44:32.777Z,26.60
2018-02-06T13:45:32.747Z,24.10
2018-02-06T13:46:32.604Z,28.20
2018-02-06T13:47:32.548Z,24.40
2018-02-06T13:48:32.443Z,24.60
2018-02-06T13:49:32.405Z,27.30
2018-02-06T13:50:32.354Z,26.70
2018-02-06T13:51:32.217Z,25.10
2018-02-06T13:52:32.127Z,23.20
2018-02-06T13:53:32.027Z,26.10
2018-02-06T13:54:31.927Z,26.00
2018-02-06T13:55:31.884Z,25.30
2018-02-06T13:56:31.774Z,25.20
2018-02-06T13:57:31.718Z,27.30
2018-02-06T13:58:31.624Z,25.20
2018-02-06T13:59:31.533Z,25.10
2018-02-06T14:00:31.463Z,26.20
2018-02-06T14:01:31.373Z,27.00
2018-02-06T14:02:31.292Z,29.80
2018-02-06T14:03:31.209Z,25.90
2018-02-06T14:04:31.120Z,26.00
2018-02-06T14:05:31.057Z,23.30
2018-02-06T14:06:30.948Z,28.30
2018-02-06T14:07:30.873Z,24.10
2018-02-06T14:08:30.792Z,25.20
2018-02-06T14:09:30.710Z,24.70
2018-02-06T14:10:30.607Z,24.90
2018-02-06T14:11:30.548Z,28.00
2018-02-06T14:12:30.447Z,25.90
2018-02-06T14:13:30.392Z,27.20
2018-02-06T14:14:30.334Z,26.30
2018-02-06T14:15:30.238Z,27.20
2018-02-06T14:16:30.183Z,25.90
2018-02-06T14:17:30.037Z,27.80
2018-02-06T14:18:29.941Z,25.30
2018-02-06T14:19:29.901Z,24.20
2018-02-06T14:20:29.797Z,25.10
2018-02-06T14:21:29.722Z,27.50
2018-02-06T14:22:29.661Z,28.10
2018-02-06T14:23:29.971Z,29.90
2018-02-06T14:24:29.546Z,30.60
2018-02-06T14:25:29.408Z,25.90
2018-02-06T14:26:29.272Z,28.60
2018-02-06T14:27:29.273Z,26.70
2018-02-06T14:28:29.124Z,24.00
2018-02-06T14:29:29.059Z,25.10
2018-02-06T14:30:28.959Z,25.60
2018-02-06T14:31:28.953Z,24.20
2018-02-06T14:32:28.790Z,27.00
2018-02-06T14:33:28.720Z,27.60
2018-02-06T14:34:28.620Z,25.30
2018-02-06T14:35:28.590Z,26.50
2018-02-06T14:36:28.525Z,27.50
2018-02-06T14:37:28.484Z,26.00
2018-02-06T14:38:28.300Z,24.90
2018-02-06T14:39:28.234Z,25.60
2018-02-06T14:40:28.178Z,24.70
2018-02-06T14:41:28.069Z,26.00
2018-02-06T14:42:27.988Z,25.20
2018-02-06T14:43:27.898Z,28.90
2018-02-06T14:44:27.805Z,27.40
2018-02-06T14:45:27.756Z,26.40
2018-02-06T14:46:27.647Z,25.40
2018-02-06T14:47:27.597Z,23.40
2018-02-06T14:48:27.507Z,25.70
2018-02-06T14:49:27.389Z,26.60
2018-02-06T14:50:27.320Z,25.50
2018-02-06T14:51:27.242Z,25.40
2018-02-06T14:52:27.168Z,26.00
2018-02-06T14:53:27.079Z,26.10
2018-02-06T14:54:26.965Z,26.10
2018-02-06T14:55:26.957Z,29.90
2018-02-06T14:56:26.840Z,31.20
2018-02-06T14:57:26.767Z,24.30
2018-02-06T14:58:26.654Z,27.60
2018-02-06T14:59:26.547Z,25.80
2018-02-06T15:00:26.464Z,23.60
2018-02-06T15:01:26.404Z,23.10